Terminal Aerodrome Forecast
Issued by NWS Wilmington, OH

Home | Current Version | Previous Version | Text Only | Print | Product List | Glossary On
Versions: 1 2 3 4 5 6 7 8 9 10 11 12 13 14 15 16 17 18 19
133
FTUS41 KILN 231120
TAFCMH
TAF
KCMH 231120Z 2312/2412 00000KT P6SM BKN200
     FM231400 22008KT P6SM BKN100
     FM232300 20004KT P6SM FEW100
     FM240700 16003KT P6SM SKC=

USA.gov is the U.S. government's official web portal to all federal, state and local government web resources and services.